Ms-hammaritha — PF2437 — position and weather

sailwx.info

Track history (hours):
 
Tides and Currents Weather Stations Pressure Air Temp Water Temp Dewpoint Dewpoint Depression Visibility Wind Speed Wind Dir Waves Ship Positions

Ms-hammaritha

Last reported at 2014-Oct-01 13:33 UTC. Time now 2014-Oct-01 14:21 UTC.
Position N 51°48' E 005°21'.

Length 86 m.

Type: Ship. MMSI: 244700691.

Date/timePositionNaut miles runAvg speedWind from/ knotsBaromVisibWave heightAir tempDewpointWater temp
2014-Oct-01 13:33N 51°48' E 005°21'0 0.1
2014-Oct-01 12:33N 51°48' E 005°22'4 4.4
2014-Oct-01 11:33N 51°44' E 005°17'6 5.7
2014-Oct-01 10:33N 51°45' E 005°08'1 1.0
2014-Oct-01 09:33N 51°46' E 005°09'0 0.0
2014-Oct-01 08:33N 51°46' E 005°09'0 0.0
2014-Oct-01 07:33N 51°46' E 005°09'0 0.0
2014-Oct-01 06:33N 51°46' E 005°09'0 0.0
2014-Oct-01 05:33N 51°46' E 005°09'0 0.0
2014-Oct-01 04:33N 51°46' E 005°09'0 0.0
2014-Oct-01 03:33N 51°46' E 005°09'0 0.0
2014-Oct-01 02:33N 51°46' E 005°09'0 0.0
2014-Oct-01 01:33N 51°46' E 005°09'0 0.0
2014-Oct-01 00:33N 51°46' E 005°09'0 0.0
2014-Sep-30 23:33N 51°46' E 005°09'0 0.0
2014-Sep-30 22:33N 51°46' E 005°09'0 0.0
2014-Sep-30 21:33N 51°46' E 005°09'2 1.8
2014-Sep-30 20:33N 51°45' E 005°10'6 6.4
2014-Sep-30 19:33N 51°45' E 005°21'3 2.8
2014-Sep-30 18:33N 51°48' E 005°21'0 0.0
2014-Sep-30 17:33N 51°48' E 005°21'6 5.9
2014-Sep-30 16:33N 51°53' E 005°26'19 1.0
2014-Sep-29 20:14N 51°57' E 005°57'8 2.8
2014-Sep-29 17:28N 51°53' E 005°47'6 6.0
2014-Sep-29 16:27N 51°54' E 005°38'5 6.0
2014-Sep-29 15:33N 51°53' E 005°29'6 5.8
2014-Sep-29 14:33N 51°49' E 005°23'2 1.5
2014-Sep-29 13:33N 51°48' E 005°22'0 0.0
2014-Sep-29 12:33N 51°48' E 005°22'4 4.4
2014-Sep-29 11:33N 51°44' E 005°17'6 5.6
2014-Sep-29 10:33N 51°46' E 005°08'1 0.5
2014-Sep-29 09:33N 51°46' E 005°09'0 0.0
2014-Sep-29 08:33N 51°46' E 005°09'0 0.0
2014-Sep-29 07:33N 51°46' E 005°09'0 0.0
2014-Sep-29 06:33N 51°46' E 005°09'0 0.0
2014-Sep-29 05:33N 51°46' E 005°09'0 0.0
2014-Sep-29 04:32N 51°46' E 005°09'0 0.0
2014-Sep-29 03:33N 51°46' E 005°09'0 0.0
2014-Sep-29 02:33N 51°46' E 005°09'0 0.0
2014-Sep-29 01:33N 51°46' E 005°09'0 0.0
2014-Sep-29 00:33N 51°46' E 005°09'0 0.0
2014-Sep-28 23:33N 51°46' E 005°09'0 0.0
2014-Sep-28 22:33N 51°46' E 005°09'0 0.0
2014-Sep-28 21:33N 51°46' E 005°09'0 0.0
2014-Sep-28 20:33N 51°46' E 005°09'0 0.0
2014-Sep-28 19:33N 51°46' E 005°09'0 0.0
2014-Sep-28 18:33N 51°46' E 005°09'0 0.0
2014-Sep-28 17:33N 51°46' E 005°09'0 0.0
2014-Sep-28 16:33N 51°46' E 005°09'0 0.0
2014-Sep-28 15:33N 51°46' E 005°09'0 0.0
2014-Sep-28 14:33N 51°46' E 005°09'0 0.0
2014-Sep-28 13:33N 51°46' E 005°09'0 0.0
2014-Sep-28 12:33N 51°46' E 005°09'0 0.0
2014-Sep-28 11:33N 51°46' E 005°09'0 0.0
2014-Sep-28 10:33N 51°46' E 005°09'0 0.0
2014-Sep-28 09:33N 51°46' E 005°09'0 0.0
2014-Sep-28 08:33N 51°46' E 005°09'0 0.0
2014-Sep-28 07:33N 51°46' E 005°09'0 0.0
2014-Sep-28 06:33N 51°46' E 005°09'0 0.0
2014-Sep-28 05:33N 51°46' E 005°09'0 0.0
2014-Sep-28 04:33N 51°46' E 005°09'0 0.0
2014-Sep-28 03:33N 51°46' E 005°09'0 0.0
2014-Sep-28 02:34N 51°46' E 005°09'0 0.0
2014-Sep-28 01:33N 51°46' E 005°09'0 0.0
2014-Sep-28 00:33N 51°46' E 005°09'0 0.0
2014-Sep-27 23:33N 51°46' E 005°09'0 0.0
2014-Sep-27 22:33N 51°46' E 005°09'0 0.0
2014-Sep-27 21:33N 51°46' E 005°09'0 0.0
2014-Sep-27 20:33N 51°46' E 005°09'0 0.0
2014-Sep-27 19:33N 51°46' E 005°09'0 0.0
2014-Sep-27 18:34N 51°46' E 005°09'0 0.0
2014-Sep-27 17:33N 51°46' E 005°09'0 0.0
2014-Sep-27 16:34N 51°46' E 005°09'0 0.0
2014-Sep-27 15:34N 51°46' E 005°09'0 0.0
2014-Sep-27 14:33N 51°46' E 005°09'0 0.0
2014-Sep-27 13:33N 51°46' E 005°09'0 0.0
2014-Sep-27 12:33N 51°46' E 005°09'0 0.0
2014-Sep-27 11:34N 51°46' E 005°09'0 0.0
2014-Sep-27 10:33N 51°46' E 005°09'0 0.0
2014-Sep-27 09:33N 51°46' E 005°09'0 0.0
2014-Sep-27 08:33N 51°46' E 005°09'0 0.0
2014-Sep-27 07:33N 51°46' E 005°09'0 0.0
2014-Sep-27 06:33N 51°46' E 005°09'0 0.0
2014-Sep-27 05:34N 51°46' E 005°09'0 0.0
2014-Sep-27 04:34N 51°46' E 005°09'0 0.0
2014-Sep-27 03:34N 51°46' E 005°09'0 0.0
2014-Sep-27 02:33N 51°46' E 005°09'0 0.0
2014-Sep-27 01:33N 51°46' E 005°09'0 0.0
2014-Sep-27 00:33N 51°46' E 005°09'0 0.0
2014-Sep-26 23:33N 51°46' E 005°09'0 0.0
2014-Sep-26 22:34N 51°46' E 005°09'0 0.0
2014-Sep-26 21:34N 51°46' E 005°09'2 1.6
2014-Sep-26 20:33N 51°45' E 005°08'6 5.5
2014-Sep-26 19:33N 51°44' E 005°16'5 4.6
2014-Sep-26 18:33N 51°48' E 005°21'4 3.6
2014-Sep-26 17:33N 51°51' E 005°25'8 7.6
2014-Sep-26 16:33N 51°54' E 005°36'13 0.6
2014-Sep-25 17:29N 51°57' E 005°57'4 4.8
2014-Sep-25 16:33N 51°58' E 005°50'4 4.1
2014-Sep-25 15:31N 51°58' E 005°44'6 5.9
2014-Sep-25 14:33N 51°57' E 005°34'6 6.1
2014-Sep-25 13:33N 51°59' E 005°25'4 3.5
2014-Sep-25 12:33N 51°58' E 005°19'6 5.8
2014-Sep-25 11:33N 52°00' E 005°11'7 7.1
2014-Sep-25 10:33N 52°06' E 005°05'7 6.9
2014-Sep-25 09:33N 52°13' E 005°00'7 7.5
2014-Sep-25 08:33N 52°20' E 005°00'2 2.2
2014-Sep-25 07:33N 52°22' E 004°59'6 6.3
2014-Sep-25 06:33N 52°20' E 005°08'0 0.1
2014-Sep-25 05:22N 52°20' E 005°08'0 0.0
2014-Sep-24 19:07N 52°20' E 005°08'4 7.0
2014-Sep-24 18:33N 52°22' E 005°04'4 4.2
2014-Sep-24 17:33N 52°22' E 004°57'7 6.8
2014-Sep-24 16:33N 52°15' E 005°01'4 4.4
2014-Sep-24 15:32N 52°11' E 004°60'2 1.9
2014-Sep-24 14:32N 52°09' E 005°00'6 6.6
2014-Sep-24 13:33N 52°04' E 005°06'3 3.1
2014-Sep-24 12:33N 52°01' E 005°06'2 2.1
2014-Sep-24 11:33N 51°59' E 005°05'5 5.3
2014-Sep-24 10:32N 51°54' E 004°60'5 4.8
2014-Sep-24 09:33N 51°50' E 004°58'3 0.8
2014-Sep-24 05:23N 51°49' E 004°52'5 6.2
2014-Sep-24 04:33N 51°49' E 005°01'2 1.5
2014-Sep-24 03:29N 51°48' E 005°03'0 0.0
2014-Sep-24 02:31N 51°48' E 005°03'0 0.0
2014-Sep-24 01:33N 51°48' E 005°03'0 0.0
2014-Sep-24 00:33N 51°48' E 005°03'0 0.0
2014-Sep-23 23:32N 51°48' E 005°03'0 0.0
2014-Sep-23 22:31N 51°48' E 005°03'0 0.0
2014-Sep-23 21:33N 51°48' E 005°03'0 0.0
2014-Sep-23 20:33N 51°48' E 005°03'0 0.0
2014-Sep-23 19:33N 51°48' E 005°03'0 0.0
2014-Sep-23 17:04N 51°48' E 005°03'0 0.0
2014-Sep-23 14:15N 51°48' E 005°03'0 0.0
2014-Sep-23 13:16N 51°48' E 005°03'0 0.0
2014-Sep-23 12:31N 51°48' E 005°03'2 1.7
2014-Sep-23 11:33N 51°47' E 005°05'2 2.3
2014-Sep-23 10:33N 51°46' E 005°09'0 0.0
2014-Sep-23 09:33N 51°46' E 005°09'0 0.0
2014-Sep-23 08:33N 51°46' E 005°09'0 0.0
2014-Sep-23 07:33N 51°46' E 005°09'0 0.0
2014-Sep-23 06:33N 51°46' E 005°09'0 0.0
2014-Sep-23 05:33N 51°46' E 005°09'0 0.0
2014-Sep-23 04:33N 51°46' E 005°09'0 0.0
2014-Sep-23 03:33N 51°46' E 005°09'0 0.0
2014-Sep-23 02:33N 51°46' E 005°09'0 0.0
2014-Sep-23 01:33N 51°46' E 005°09'0 0.0
2014-Sep-23 00:33N 51°46' E 005°09'0 0.0
2014-Sep-22 23:33N 51°46' E 005°09'0 0.0
2014-Sep-22 22:33N 51°46' E 005°09'0 0.0
2014-Sep-22 21:33N 51°46' E 005°09'2 1.7
2014-Sep-22 20:33N 51°45' E 005°10'7 6.6
2014-Sep-22 19:33N 51°45' E 005°21'3 2.9
2014-Sep-22 18:33N 51°48' E 005°21'1 0.5
2014-Sep-22 17:33N 51°48' E 005°22'7 7.5
2014-Sep-22 16:33N 51°53' E 005°31'  
Track history (hours):
 
Tides and Currents Weather Stations Pressure Air Temp Water Temp Dewpoint Dewpoint Depression Visibility Wind Speed Wind Dir Waves Ship Positions

Ms-hammaritha

Last reported at 2014-Oct-01 13:33 UTC. Time now 2014-Oct-01 14:21 UTC.
Position N 51°48' E 005°21'.

Length 86 m.

Type: Ship. MMSI: 244700691.

Date/timePositionNaut miles runAvg speedWind from/ knotsBaromVisibWave heightAir tempDewpointWater temp
2014-Oct-01 13:33N 51°48' E 005°21'0 0.1
2014-Oct-01 12:33N 51°48' E 005°22'4 4.4
2014-Oct-01 11:33N 51°44' E 005°17'6 5.7
2014-Oct-01 10:33N 51°45' E 005°08'1 1.0
2014-Oct-01 09:33N 51°46' E 005°09'0 0.0
2014-Oct-01 08:33N 51°46' E 005°09'0 0.0
2014-Oct-01 07:33N 51°46' E 005°09'0 0.0
2014-Oct-01 06:33N 51°46' E 005°09'0 0.0
2014-Oct-01 05:33N 51°46' E 005°09'0 0.0
2014-Oct-01 04:33N 51°46' E 005°09'0 0.0
2014-Oct-01 03:33N 51°46' E 005°09'0 0.0
2014-Oct-01 02:33N 51°46' E 005°09'0 0.0
2014-Oct-01 01:33N 51°46' E 005°09'0 0.0
2014-Oct-01 00:33N 51°46' E 005°09'0 0.0
2014-Sep-30 23:33N 51°46' E 005°09'0 0.0
2014-Sep-30 22:33N 51°46' E 005°09'0 0.0
2014-Sep-30 21:33N 51°46' E 005°09'2 1.8
2014-Sep-30 20:33N 51°45' E 005°10'6 6.4
2014-Sep-30 19:33N 51°45' E 005°21'3 2.8
2014-Sep-30 18:33N 51°48' E 005°21'0 0.0
2014-Sep-30 17:33N 51°48' E 005°21'6 5.9
2014-Sep-30 16:33N 51°53' E 005°26'19 1.0
2014-Sep-29 20:14N 51°57' E 005°57'8 2.8
2014-Sep-29 17:28N 51°53' E 005°47'6 6.0
2014-Sep-29 16:27N 51°54' E 005°38'5 6.0
2014-Sep-29 15:33N 51°53' E 005°29'6 5.8
2014-Sep-29 14:33N 51°49' E 005°23'2 1.5
2014-Sep-29 13:33N 51°48' E 005°22'0 0.0
2014-Sep-29 12:33N 51°48' E 005°22'4 4.4
2014-Sep-29 11:33N 51°44' E 005°17'6 5.6
2014-Sep-29 10:33N 51°46' E 005°08'1 0.5
2014-Sep-29 09:33N 51°46' E 005°09'0 0.0
2014-Sep-29 08:33N 51°46' E 005°09'0 0.0
2014-Sep-29 07:33N 51°46' E 005°09'0 0.0
2014-Sep-29 06:33N 51°46' E 005°09'0 0.0
2014-Sep-29 05:33N 51°46' E 005°09'0 0.0
2014-Sep-29 04:32N 51°46' E 005°09'0 0.0
2014-Sep-29 03:33N 51°46' E 005°09'0 0.0
2014-Sep-29 02:33N 51°46' E 005°09'0 0.0
2014-Sep-29 01:33N 51°46' E 005°09'0 0.0
2014-Sep-29 00:33N 51°46' E 005°09'0 0.0
2014-Sep-28 23:33N 51°46' E 005°09'0 0.0
2014-Sep-28 22:33N 51°46' E 005°09'0 0.0
2014-Sep-28 21:33N 51°46' E 005°09'0 0.0
2014-Sep-28 20:33N 51°46' E 005°09'0 0.0
2014-Sep-28 19:33N 51°46' E 005°09'0 0.0
2014-Sep-28 18:33N 51°46' E 005°09'0 0.0
2014-Sep-28 17:33N 51°46' E 005°09'0 0.0
2014-Sep-28 16:33N 51°46' E 005°09'0 0.0
2014-Sep-28 15:33N 51°46' E 005°09'0 0.0
2014-Sep-28 14:33N 51°46' E 005°09'0 0.0
2014-Sep-28 13:33N 51°46' E 005°09'0 0.0
2014-Sep-28 12:33N 51°46' E 005°09'0 0.0
2014-Sep-28 11:33N 51°46' E 005°09'0 0.0
2014-Sep-28 10:33N 51°46' E 005°09'0 0.0
2014-Sep-28 09:33N 51°46' E 005°09'0 0.0
2014-Sep-28 08:33N 51°46' E 005°09'0 0.0
2014-Sep-28 07:33N 51°46' E 005°09'0 0.0
2014-Sep-28 06:33N 51°46' E 005°09'0 0.0
2014-Sep-28 05:33N 51°46' E 005°09'0 0.0
2014-Sep-28 04:33N 51°46' E 005°09'0 0.0
2014-Sep-28 03:33N 51°46' E 005°09'0 0.0
2014-Sep-28 02:34N 51°46' E 005°09'0 0.0
2014-Sep-28 01:33N 51°46' E 005°09'0 0.0
2014-Sep-28 00:33N 51°46' E 005°09'0 0.0
2014-Sep-27 23:33N 51°46' E 005°09'0 0.0
2014-Sep-27 22:33N 51°46' E 005°09'0 0.0
2014-Sep-27 21:33N 51°46' E 005°09'0 0.0
2014-Sep-27 20:33N 51°46' E 005°09'0 0.0
2014-Sep-27 19:33N 51°46' E 005°09'0 0.0
2014-Sep-27 18:34N 51°46' E 005°09'0 0.0
2014-Sep-27 17:33N 51°46' E 005°09'0 0.0
2014-Sep-27 16:34N 51°46' E 005°09'0 0.0
2014-Sep-27 15:34N 51°46' E 005°09'0 0.0
2014-Sep-27 14:33N 51°46' E 005°09'0 0.0
2014-Sep-27 13:33N 51°46' E 005°09'0 0.0
2014-Sep-27 12:33N 51°46' E 005°09'0 0.0
2014-Sep-27 11:34N 51°46' E 005°09'0 0.0
2014-Sep-27 10:33N 51°46' E 005°09'0 0.0
2014-Sep-27 09:33N 51°46' E 005°09'0 0.0
2014-Sep-27 08:33N 51°46' E 005°09'0 0.0
2014-Sep-27 07:33N 51°46' E 005°09'0 0.0
2014-Sep-27 06:33N 51°46' E 005°09'0 0.0
2014-Sep-27 05:34N 51°46' E 005°09'0 0.0
2014-Sep-27 04:34N 51°46' E 005°09'0 0.0
2014-Sep-27 03:34N 51°46' E 005°09'0 0.0
2014-Sep-27 02:33N 51°46' E 005°09'0 0.0
2014-Sep-27 01:33N 51°46' E 005°09'0 0.0
2014-Sep-27 00:33N 51°46' E 005°09'0 0.0
2014-Sep-26 23:33N 51°46' E 005°09'0 0.0
2014-Sep-26 22:34N 51°46' E 005°09'0 0.0
2014-Sep-26 21:34N 51°46' E 005°09'2 1.6
2014-Sep-26 20:33N 51°45' E 005°08'6 5.5
2014-Sep-26 19:33N 51°44' E 005°16'5 4.6
2014-Sep-26 18:33N 51°48' E 005°21'4 3.6
2014-Sep-26 17:33N 51°51' E 005°25'8 7.6
2014-Sep-26 16:33N 51°54' E 005°36'13 0.6
2014-Sep-25 17:29N 51°57' E 005°57'4 4.8
2014-Sep-25 16:33N 51°58' E 005°50'4 4.1
2014-Sep-25 15:31N 51°58' E 005°44'6 5.9
2014-Sep-25 14:33N 51°57' E 005°34'6 6.1
2014-Sep-25 13:33N 51°59' E 005°25'4 3.5
2014-Sep-25 12:33N 51°58' E 005°19'6 5.8
2014-Sep-25 11:33N 52°00' E 005°11'7 7.1
2014-Sep-25 10:33N 52°06' E 005°05'7 6.9
2014-Sep-25 09:33N 52°13' E 005°00'7 7.5
2014-Sep-25 08:33N 52°20' E 005°00'2 2.2
2014-Sep-25 07:33N 52°22' E 004°59'6 6.3
2014-Sep-25 06:33N 52°20' E 005°08'0 0.1
2014-Sep-25 05:22N 52°20' E 005°08'0 0.0
2014-Sep-24 19:07N 52°20' E 005°08'4 7.0
2014-Sep-24 18:33N 52°22' E 005°04'4 4.2
2014-Sep-24 17:33N 52°22' E 004°57'7 6.8
2014-Sep-24 16:33N 52°15' E 005°01'4 4.4
2014-Sep-24 15:32N 52°11' E 004°60'2 1.9
2014-Sep-24 14:32N 52°09' E 005°00'6 6.6
2014-Sep-24 13:33N 52°04' E 005°06'3 3.1
2014-Sep-24 12:33N 52°01' E 005°06'2 2.1
2014-Sep-24 11:33N 51°59' E 005°05'5 5.3
2014-Sep-24 10:32N 51°54' E 004°60'5 4.8
2014-Sep-24 09:33N 51°50' E 004°58'3 0.8
2014-Sep-24 05:23N 51°49' E 004°52'5 6.2
2014-Sep-24 04:33N 51°49' E 005°01'2 1.5
2014-Sep-24 03:29N 51°48' E 005°03'0 0.0
2014-Sep-24 02:31N 51°48' E 005°03'0 0.0
2014-Sep-24 01:33N 51°48' E 005°03'0 0.0
2014-Sep-24 00:33N 51°48' E 005°03'0 0.0
2014-Sep-23 23:32N 51°48' E 005°03'0 0.0
2014-Sep-23 22:31N 51°48' E 005°03'0 0.0
2014-Sep-23 21:33N 51°48' E 005°03'0 0.0
2014-Sep-23 20:33N 51°48' E 005°03'0 0.0
2014-Sep-23 19:33N 51°48' E 005°03'0 0.0
2014-Sep-23 17:04N 51°48' E 005°03'0 0.0
2014-Sep-23 14:15N 51°48' E 005°03'0 0.0
2014-Sep-23 13:16N 51°48' E 005°03'0 0.0
2014-Sep-23 12:31N 51°48' E 005°03'2 1.7
2014-Sep-23 11:33N 51°47' E 005°05'2 2.3
2014-Sep-23 10:33N 51°46' E 005°09'0 0.0
2014-Sep-23 09:33N 51°46' E 005°09'0 0.0
2014-Sep-23 08:33N 51°46' E 005°09'0 0.0
2014-Sep-23 07:33N 51°46' E 005°09'0 0.0
2014-Sep-23 06:33N 51°46' E 005°09'0 0.0
2014-Sep-23 05:33N 51°46' E 005°09'0 0.0
2014-Sep-23 04:33N 51°46' E 005°09'0 0.0
2014-Sep-23 03:33N 51°46' E 005°09'0 0.0
2014-Sep-23 02:33N 51°46' E 005°09'0 0.0
2014-Sep-23 01:33N 51°46' E 005°09'0 0.0
2014-Sep-23 00:33N 51°46' E 005°09'0 0.0
2014-Sep-22 23:33N 51°46' E 005°09'0 0.0
2014-Sep-22 22:33N 51°46' E 005°09'0 0.0
2014-Sep-22 21:33N 51°46' E 005°09'2 1.7
2014-Sep-22 20:33N 51°45' E 005°10'7 6.6
2014-Sep-22 19:33N 51°45' E 005°21'3 2.9
2014-Sep-22 18:33N 51°48' E 005°21'1 0.5
2014-Sep-22 17:33N 51°48' E 005°22'7 7.5
2014-Sep-22 16:33N 51°53' E 005°31'  

Dump ship's entire track history